Time;durP1;ratioP1;P1;durP2;ratioP2;P2;SDS_P1;SDS_P2;PMS_P1;PMS_P2;Temp;Humidity;BMP_temperature;BMP_pressure;BME280_temperature;BME280_humidity;BME280_pressure;Samples;Min_cycle;Max_cycle;Signal;HPM_P1;HPM_P2
2024/03/04 00:01:42;;;;;;;9.50;6.70;;;;;;;1.43;100.00;100596.30;87419;279;136184;-75
2024/03/04 00:03:44;;;;;;;11.70;7.70;;;;;;;1.44;100.00;100594.33;87569;271;25201;-75
2024/03/04 00:05:46;;;;;;;14.40;6.50;;;;;;;1.46;100.00;100592.71;87479;270;138042;-75
2024/03/04 00:07:48;;;;;;;12.70;6.60;;;;;;;1.51;100.00;100593.70;87524;270;24045;-75
2024/03/04 00:09:50;;;;;;;11.90;6.50;;;;;;;1.53;100.00;100595.47;87455;271;137668;-76
2024/03/04 00:11:52;;;;;;;9.80;6.60;;;;;;;1.54;100.00;100595.23;87538;275;22572;-75
2024/03/04 00:13:54;;;;;;;12.60;6.50;;;;;;;1.55;100.00;100592.70;87534;279;136612;-75
2024/03/04 00:15:57;;;;;;;12.30;7.40;;;;;;;1.58;100.00;100596.21;87664;279;25249;-75
2024/03/04 00:17:59;;;;;;;11.90;7.00;;;;;;;1.58;100.00;100598.21;87522;267;136615;-77
2024/03/04 00:20:06;;;;;;;10.10;6.90;;;;;;;1.59;100.00;100593.10;87659;270;25233;-75
2024/03/04 00:22:09;;;;;;;9.60;6.70;;;;;;;1.60;100.00;100596.87;87554;271;22557;-74
2024/03/04 00:24:11;;;;;;;10.10;7.20;;;;;;;1.61;100.00;100596.23;87549;269;138161;-74
2024/03/04 00:26:14;;;;;;;10.40;6.60;;;;;;;1.61;100.00;100593.11;87613;269;25240;-73
2024/03/04 00:28:16;;;;;;;13.00;6.50;;;;;;;1.61;100.00;100593.77;87445;266;137833;-76
2024/03/04 00:30:18;;;;;;;9.20;6.90;;;;;;;1.61;100.00;100594.65;87587;271;23988;-74
2024/03/04 00:32:20;;;;;;;13.30;6.00;;;;;;;1.61;100.00;100594.02;87512;266;137850;-74
2024/03/04 00:34:23;;;;;;;7.80;6.00;;;;;;;1.58;100.00;100597.00;87547;267;25079;-74
2024/03/04 00:36:26;;;;;;;23.90;6.80;;;;;;;1.52;100.00;100592.77;87439;271;136459;-77
2024/03/04 00:38:28;;;;;;;10.40;7.10;;;;;;;1.44;100.00;100582.02;87604;275;25205;-77
2024/03/04 00:40:30;;;;;;;9.30;6.80;;;;;;;1.38;100.00;100586.89;87435;274;137500;-79
2024/03/04 00:42:32;;;;;;;8.20;6.40;;;;;;;1.34;100.00;100580.89;87600;278;26106;-75
2024/03/04 00:44:35;;;;;;;14.30;7.50;;;;;;;1.34;100.00;100583.19;87433;278;136547;-75
2024/03/04 00:46:41;;;;;;;12.60;7.10;;;;;;;1.34;100.00;100581.61;87586;271;22535;-75
2024/03/04 00:48:44;;;;;;;8.70;7.00;;;;;;;1.31;100.00;100583.72;87554;279;136219;-75
2024/03/04 00:50:46;;;;;;;9.20;6.60;;;;;;;1.29;100.00;100582.88;87442;268;23770;-76
2024/03/04 00:52:48;;;;;;;12.90;6.50;;;;;;;1.29;100.00;100579.92;87407;266;138193;-76
2024/03/04 00:54:50;;;;;;;10.30;6.10;;;;;;;1.31;100.00;100580.92;87620;271;22556;-79
2024/03/04 00:56:52;;;;;;;10.20;6.10;;;;;;;1.33;100.00;100583.42;87345;268;136649;-73
2024/03/04 00:58:54;;;;;;;10.40;7.40;;;;;;;1.32;100.00;100580.88;87559;267;25284;-74
2024/03/04 01:00:57;;;;;;;11.70;6.90;;;;;;;1.31;100.00;100585.30;87419;275;136808;-73
2024/03/04 01:03:00;;;;;;;7.50;6.80;;;;;;;1.31;100.00;100583.05;87469;272;22573;-74
2024/03/04 01:05:02;;;;;;;9.40;7.40;;;;;;;1.32;100.00;100583.84;87402;279;136456;-73
2024/03/04 01:07:04;;;;;;;7.70;5.90;;;;;;;1.34;100.00;100581.56;87535;279;22606;-74
2024/03/04 01:09:06;;;;;;;9.50;6.30;;;;;;;1.40;100.00;100582.23;87332;277;136526;-74
2024/03/04 01:11:08;;;;;;;8.20;5.90;;;;;;;1.41;100.00;100586.46;87598;271;25751;-73
2024/03/04 01:13:10;;;;;;;9.70;6.80;;;;;;;1.41;100.00;100584.52;87266;272;138051;-74
2024/03/04 01:15:12;;;;;;;6.60;5.60;;;;;;;1.41;100.00;100584.90;87661;270;24049;-73
2024/03/04 01:17:16;;;;;;;9.90;6.60;;;;;;;1.43;100.00;100581.42;87443;267;136656;-73
2024/03/04 01:19:20;;;;;;;;;;;;;;;1.46;100.00;100579.45;87499;267;24989;-73
2024/03/04 01:21:22;;;;;;;8.00;6.10;;;;;;;1.47;100.00;100577.59;87288;276;124183;-74
2024/03/04 01:23:23;;;;;;;9.00;7.00;;;;;;;1.47;100.00;100576.03;87468;272;23918;-75
2024/03/04 01:25:26;;;;;;;8.30;6.00;;;;;;;1.47;100.00;100577.40;87429;267;137973;-74
2024/03/04 01:27:28;;;;;;;12.70;7.40;;;;;;;1.48;100.00;100576.24;87535;267;22655;-74
2024/03/04 01:29:29;;;;;;;12.10;7.70;;;;;;;1.48;100.00;100575.42;87408;271;138068;-74
2024/03/04 01:31:32;;;;;;;12.20;6.80;;;;;;;1.47;100.00;100575.33;87442;272;24129;-75
2024/03/04 01:33:33;;;;;;;10.10;6.70;;;;;;;1.45;100.00;100576.34;87366;271;137857;-74
2024/03/04 01:35:35;;;;;;;8.60;6.90;;;;;;;1.44;100.00;100581.48;87329;269;22681;-73
2024/03/04 01:37:41;;;;;;;15.40;8.20;;;;;;;1.45;100.00;100582.83;87452;271;136665;-75
2024/03/04 01:39:42;;;;;;;7.90;5.80;;;;;;;1.41;100.00;100582.11;87502;276;25183;-75
2024/03/04 01:41:44;;;;;;;12.40;7.30;;;;;;;1.38;100.00;100584.45;87362;271;137538;-73
2024/03/04 01:43:46;;;;;;;12.80;6.80;;;;;;;1.35;100.00;100585.00;87566;271;22847;-73
2024/03/04 01:45:47;;;;;;;7.90;6.80;;;;;;;1.33;100.00;100586.25;87449;273;136765;-76
2024/03/04 01:47:59;;;;;;;9.80;7.20;;;;;;;1.29;100.00;100591.46;87521;270;24154;-73
2024/03/04 01:50:01;;;;;;;7.60;5.90;;;;;;;1.25;100.00;100589.45;87281;272;136714;-73
2024/03/04 01:52:05;;;;;;;9.40;6.70;;;;;;;1.23;100.00;100591.56;87414;272;136926;-74
2024/03/04 01:54:07;;;;;;;9.70;7.80;;;;;;;1.22;100.00;100591.98;87752;275;22571;-74
2024/03/04 01:56:09;;;;;;;10.30;8.40;;;;;;;1.22;100.00;100592.88;87697;274;136647;-74
2024/03/04 01:58:12;;;;;;;9.60;8.10;;;;;;;1.23;100.00;100592.66;87604;271;22765;-75
2024/03/04 02:00:17;;;;;;;11.70;7.50;;;;;;;1.25;100.00;100597.36;87338;271;136650;-75
2024/03/04 02:02:19;;;;;;;6.80;5.70;;;;;;;1.29;100.00;100598.64;87691;266;24001;-75
2024/03/04 02:04:22;;;;;;;12.60;8.90;;;;;;;1.29;100.00;100599.11;87403;270;136675;-76
2024/03/04 02:06:25;;;;;;;12.50;8.60;;;;;;;1.28;100.00;100598.02;87424;269;22963;-73
2024/03/04 02:08:28;;;;;;;14.20;8.40;;;;;;;1.26;100.00;100596.22;87399;271;136929;-75
2024/03/04 02:10:30;;;;;;;11.10;7.40;;;;;;;1.25;100.00;100596.16;87414;269;24155;-74
2024/03/04 02:12:33;;;;;;;11.30;8.20;;;;;;;1.24;100.00;100598.12;87796;268;136877;-73
2024/03/04 02:14:36;;;;;;;15.10;8.20;;;;;;;1.26;100.00;100595.21;88267;269;23961;-74
2024/03/04 02:16:38;;;;;;;12.70;7.90;;;;;;;1.30;100.00;100593.29;87752;269;136715;-73
2024/03/04 02:18:40;;;;;;;11.00;7.30;;;;;;;1.34;100.00;100591.71;87559;271;22624;-76
2024/03/04 02:20:45;;;;;;;10.50;7.60;;;;;;;1.39;100.00;100592.58;87373;272;136463;-75
2024/03/04 02:22:47;;;;;;;7.70;6.60;;;;;;;1.41;100.00;100592.79;87819;278;22563;-76
2024/03/04 02:24:49;;;;;;;11.70;7.90;;;;;;;1.39;100.00;100595.95;87460;270;137123;-74
2024/03/04 02:26:50;;;;;;;14.20;7.80;;;;;;;1.33;100.00;100590.98;87546;271;22584;-77
2024/03/04 02:28:52;;;;;;;11.10;8.20;;;;;;;1.28;100.00;100596.30;87397;272;136155;-75
2024/03/04 02:31:01;;;;;;;11.50;8.20;;;;;;;1.24;100.00;100595.52;87680;267;22563;-75
2024/03/04 02:33:04;;;;;;;15.10;8.80;;;;;;;1.25;100.00;100599.13;87439;263;136734;-76
2024/03/04 02:35:07;;;;;;;11.20;7.40;;;;;;;1.23;100.00;100602.44;87611;270;23998;-75
2024/03/04 02:37:11;;;;;;;9.40;7.50;;;;;;;1.19;100.00;100599.59;87435;273;137660;-77
2024/03/04 02:39:15;;;;;;;11.40;8.10;;;;;;;1.19;100.00;100603.85;87527;267;25246;-75
2024/03/04 02:41:18;;;;;;;10.50;7.60;;;;;;;1.20;100.00;100606.52;87491;279;136966;-75
2024/03/04 02:43:20;;;;;;;9.90;7.70;;;;;;;1.25;100.00;100610.54;87554;271;24077;-75
2024/03/04 02:45:22;;;;;;;10.00;8.00;;;;;;;1.28;100.00;100613.43;87306;269;136578;-75
2024/03/04 02:47:24;;;;;;;9.20;6.80;;;;;;;1.31;100.00;100612.83;87535;270;22571;-77
2024/03/04 02:49:28;;;;;;;11.20;8.90;;;;;;;1.33;100.00;100613.91;87406;271;136579;-75
2024/03/04 02:51:30;;;;;;;14.80;8.20;;;;;;;1.32;100.00;100607.51;87627;268;22580;-76
2024/03/04 02:53:32;;;;;;;17.30;9.40;;;;;;;1.32;100.00;100609.59;87503;274;138230;-77
2024/03/04 02:55:37;;;;;;;13.80;8.80;;;;;;;1.31;100.00;100608.59;87757;270;25268;-74
2024/03/04 02:57:39;;;;;;;;;;;;;;;1.32;100.00;100609.44;87571;275;137185;-75
2024/03/04 02:59:42;;;;;;;10.70;7.80;;;;;;;1.31;100.00;100605.83;87593;267;23887;-74
2024/03/04 03:01:48;;;;;;;12.50;9.10;;;;;;;1.32;100.00;100606.31;87512;279;137299;-76
2024/03/04 03:03:50;;;;;;;11.90;8.00;;;;;;;1.33;100.00;100604.41;87727;271;22661;-75
2024/03/04 03:05:52;;;;;;;10.80;7.70;;;;;;;1.34;100.00;100605.73;87399;280;137745;-76
2024/03/04 03:07:54;;;;;;;14.40;8.90;;;;;;;1.35;100.00;100607.77;87622;271;22652;-77
2024/03/04 03:09:55;;;;;;;9.40;6.90;;;;;;;1.38;100.00;100608.09;87621;267;136545;-78
2024/03/04 03:11:57;;;;;;;12.30;8.30;;;;;;;1.41;100.00;100608.89;87694;272;22529;-77
2024/03/04 03:13:59;;;;;;;9.20;7.60;;;;;;;1.44;100.00;100607.45;87568;275;137899;-78
2024/03/04 03:16:03;;;;;;;12.00;7.80;;;;;;;1.45;100.00;100611.88;87626;265;22631;-77
2024/03/04 03:18:08;;;;;;;11.10;8.90;;;;;;;1.43;100.00;100607.19;87717;270;22567;-75
2024/03/04 03:20:16;;;;;;;9.00;7.40;;;;;;;1.37;100.00;100607.61;87635;270;136233;-77
2024/03/04 03:22:19;;;;;;;9.00;6.70;;;;;;;1.33;100.00;100605.98;87240;270;25088;-77
2024/03/04 03:24:21;;;;;;;10.60;7.20;;;;;;;1.32;100.00;100607.12;87397;274;136153;-74
2024/03/04 03:26:23;;;;;;;12.50;7.40;;;;;;;1.32;100.00;100608.14;87180;271;22572;-76
2024/03/04 03:28:24;;;;;;;10.20;7.40;;;;;;;1.34;100.00;100611.36;87195;272;136965;-78
2024/03/04 03:30:27;;;;;;;10.50;7.00;;;;;;;1.35;100.00;100609.18;87194;272;24048;-77
2024/03/04 03:32:30;;;;;;;8.80;7.00;;;;;;;1.37;100.00;100609.90;87141;268;137092;-76
2024/03/04 03:34:32;;;;;;;7.60;5.70;;;;;;;1.38;100.00;100615.41;87500;267;23542;-76
2024/03/04 03:36:40;;;;;;;9.50;7.00;;;;;;;1.41;100.00;100614.86;87291;275;137229;-76
2024/03/04 03:38:42;;;;;;;9.30;7.00;;;;;;;1.41;100.00;100613.10;87337;265;26320;-79
2024/03/04 03:40:45;;;;;;;9.00;7.00;;;;;;;1.40;100.00;100616.54;87432;271;136564;-74
2024/03/04 03:42:47;;;;;;;11.00;8.40;;;;;;;1.40;100.00;100617.02;87412;271;22578;-76
2024/03/04 03:44:49;;;;;;;12.50;9.40;;;;;;;1.41;100.00;100616.05;87323;280;137852;-76
2024/03/04 03:46:50;;;;;;;12.20;9.50;;;;;;;1.40;100.00;100619.17;87529;278;25121;-77
2024/03/04 03:48:52;;;;;;;13.20;8.40;;;;;;;1.38;100.00;100614.41;87343;278;139666;-81
2024/03/04 03:50:54;;;;;;;13.20;9.10;;;;;;;1.39;100.00;100618.51;87530;268;23892;-79
2024/03/04 03:52:56;;;;;;;13.10;9.90;;;;;;;1.40;100.00;100620.55;87417;267;136755;-76
2024/03/04 03:54:58;;;;;;;16.20;9.20;;;;;;;1.39;100.00;100620.12;87298;271;25194;-76
2024/03/04 03:57:01;;;;;;;22.90;11.10;;;;;;;1.37;100.00;100619.53;87545;278;139192;-77
2024/03/04 03:59:02;;;;;;;19.20;10.60;;;;;;;1.39;100.00;100620.15;87565;275;22552;-76
2024/03/04 04:01:04;;;;;;;15.90;11.00;;;;;;;1.45;100.00;100617.84;87577;271;136915;-77
2024/03/04 04:03:06;;;;;;;19.80;10.90;;;;;;;1.44;100.00;100618.14;87609;271;25069;-76
2024/03/04 04:05:08;;;;;;;22.10;11.20;;;;;;;1.44;100.00;100616.58;87443;268;136401;-77
2024/03/04 04:07:10;;;;;;;16.80;10.50;;;;;;;1.42;100.00;100613.73;86827;275;855960;-80
2024/03/04 04:09:12;;;;;;;15.60;10.80;;;;;;;1.42;100.00;100617.61;87485;271;138323;-78
2024/03/04 04:11:14;;;;;;;18.20;12.10;;;;;;;1.41;100.00;100623.42;87513;266;24196;-77
2024/03/04 04:13:16;;;;;;;12.20;9.40;;;;;;;1.42;100.00;100624.08;87475;271;138030;-75
2024/03/04 04:15:18;;;;;;;15.90;10.40;;;;;;;1.45;100.00;100626.60;87281;275;22584;-77
2024/03/04 04:17:20;;;;;;;19.80;10.60;;;;;;;1.46;100.00;100629.82;87309;280;138781;-76
2024/03/04 04:19:22;;;;;;;13.30;9.30;;;;;;;1.47;100.00;100633.48;87491;279;22847;-78
2024/03/04 04:21:26;;;;;;;14.20;9.40;;;;;;;1.47;100.00;100636.74;87399;263;136742;-76
2024/03/04 04:23:28;;;;;;;17.60;10.60;;;;;;;1.49;100.00;100638.08;87587;266;22568;-75
2024/03/04 04:25:29;;;;;;;17.70;11.20;;;;;;;1.49;100.00;100639.23;87508;270;137736;-74
2024/03/04 04:27:31;;;;;;;16.80;11.40;;;;;;;1.51;100.00;100635.10;87554;271;22810;-74
2024/03/04 04:29:33;;;;;;;18.80;11.20;;;;;;;1.49;100.00;100632.28;87160;271;137232;-76
2024/03/04 04:31:35;;;;;;;19.40;11.90;;;;;;;1.48;100.00;100635.67;87315;277;22651;-75
2024/03/04 04:33:38;;;;;;;19.50;13.30;;;;;;;1.46;100.00;100635.81;87792;269;138543;-75
2024/03/04 04:35:40;;;;;;;19.80;12.80;;;;;;;1.46;100.00;100636.54;87612;271;22655;-76
2024/03/04 04:37:42;;;;;;;21.40;13.70;;;;;;;1.44;100.00;100640.56;87402;278;137152;-74
2024/03/04 04:39:44;;;;;;;20.30;11.80;;;;;;;1.45;100.00;100643.58;87397;274;22519;-74
2024/03/04 04:41:45;;;;;;;23.90;15.40;;;;;;;1.44;100.00;100641.53;87492;267;137081;-76
2024/03/04 04:43:47;;;;;;;27.40;16.90;;;;;;;1.44;100.00;100641.94;87190;268;23749;-77
2024/03/04 04:45:50;;;;;;;25.90;17.20;;;;;;;1.45;100.00;100638.85;87531;269;138030;-79
2024/03/04 04:47:53;;;;;;;28.40;17.90;;;;;;;1.47;100.00;100641.69;87601;269;22591;-76
2024/03/04 04:49:55;;;;;;;29.00;17.30;;;;;;;1.48;100.00;100642.33;87589;271;136735;-76
2024/03/04 04:51:57;;;;;;;25.30;16.80;;;;;;;1.43;100.00;100643.39;87606;271;23096;-77
2024/03/04 04:53:59;;;;;;;22.10;16.90;;;;;;;1.43;100.00;100642.23;87323;267;138344;-76
2024/03/04 04:56:04;;;;;;;25.20;16.60;;;;;;;1.49;100.00;100639.09;87405;267;23010;-77
2024/03/04 04:58:05;;;;;;;21.10;15.10;;;;;;;1.61;100.00;100644.22;87496;280;26198;-77
2024/03/04 05:00:11;;;;;;;21.00;14.90;;;;;;;1.73;100.00;100646.23;87640;273;136228;-76
2024/03/04 05:02:12;;;;;;;24.70;16.70;;;;;;;1.84;100.00;100645.20;87533;278;23790;-79
2024/03/04 05:04:14;;;;;;;22.80;15.20;;;;;;;1.94;100.00;100643.36;87520;266;136883;-77
2024/03/04 05:06:36;;;;;;;25.60;15.20;;;;;;;2.08;100.00;100641.64;87737;274;25288;-74
2024/03/04 05:08:38;;;;;;;20.10;15.90;;;;;;;2.22;100.00;100644.23;87379;271;136866;-74
2024/03/04 05:10:40;;;;;;;15.70;13.10;;;;;;;2.36;100.00;100647.13;87268;271;23994;-76
2024/03/04 05:12:42;;;;;;;18.90;13.10;;;;;;;2.52;100.00;100639.58;87170;271;136841;-73
2024/03/04 05:14:46;;;;;;;23.90;13.20;;;;;;;2.65;100.00;100642.53;87135;271;25099;-74
2024/03/04 05:16:48;;;;;;;27.20;13.40;;;;;;;2.72;100.00;100643.55;87180;274;137098;-73
2024/03/04 05:18:51;;;;;;;18.40;12.20;;;;;;;2.73;100.00;100649.81;87544;277;25221;-75
2024/03/04 05:20:54;;;;;;;22.90;13.80;;;;;;;2.74;100.00;100652.84;87501;277;138279;-69
2024/03/04 05:22:57;;;;;;;27.10;14.70;;;;;;;2.78;100.00;100652.86;87667;279;22559;-74
2024/03/04 05:24:59;;;;;;;21.10;14.00;;;;;;;2.89;100.00;100650.57;87643;267;136201;-75
2024/03/04 05:27:01;;;;;;;18.20;13.60;;;;;;;3.05;100.00;100653.71;87578;270;22571;-74
2024/03/04 05:29:04;;;;;;;20.40;14.30;;;;;;;3.16;99.82;100654.73;87012;262;136390;-75
2024/03/04 05:31:06;;;;;;;17.70;13.30;;;;;;;3.18;99.77;100650.86;87801;271;22561;-75
2024/03/04 05:33:08;;;;;;;23.60;14.90;;;;;;;3.20;98.70;100649.66;87583;270;136864;-76
2024/03/04 05:35:14;;;;;;;16.80;11.80;;;;;;;3.25;99.68;100643.80;87616;271;23466;-76
2024/03/04 05:37:16;;;;;;;16.20;11.40;;;;;;;3.38;98.07;100644.63;87482;271;136887;-75
2024/03/04 05:39:21;;;;;;;20.60;12.80;;;;;;;3.48;96.61;100648.27;87526;272;22597;-75
2024/03/04 05:41:23;;;;;;;19.80;12.50;;;;;;;3.59;95.80;100644.69;87497;263;136784;-79
2024/03/04 05:43:25;;;;;;;21.50;12.60;;;;;;;3.70;94.29;100643.77;87262;274;22661;-78
2024/03/04 05:45:28;;;;;;;18.00;12.00;;;;;;;3.72;93.76;100640.23;87500;267;136226;-76
2024/03/04 05:47:30;;;;;;;26.70;14.10;;;;;;;3.71;93.66;100639.77;87725;271;22621;-78
2024/03/04 05:49:32;;;;;;;19.80;13.60;;;;;;;3.79;93.72;100642.61;87487;267;136052;-80
2024/03/04 05:51:42;;;;;;;23.70;14.00;;;;;;;3.91;93.19;100646.63;87465;269;23770;-78
2024/03/04 05:53:43;;;;;;;18.40;13.80;;;;;;;4.03;91.96;100649.39;87491;270;138735;-75
2024/03/04 05:55:45;;;;;;;18.80;13.60;;;;;;;4.11;91.21;100650.64;87686;274;22539;-79
2024/03/04 05:57:47;;;;;;;19.00;13.20;;;;;;;4.19;90.33;100653.89;87372;280;136071;-73
2024/03/04 05:59:49;;;;;;;19.90;12.90;;;;;;;4.29;90.15;100653.19;87756;267;23437;-72
2024/03/04 06:01:51;;;;;;;23.20;14.70;;;;;;;4.40;89.73;100660.44;87376;266;137073;-73
2024/03/04 06:03:52;;;;;;;24.70;16.10;;;;;;;4.48;89.46;100663.40;87538;277;24052;-75
2024/03/04 06:05:54;;;;;;;17.80;14.70;;;;;;;4.55;88.51;100666.31;87277;276;136384;-80
2024/03/04 06:07:58;;;;;;;24.60;16.40;;;;;;;4.61;87.67;100669.77;87583;274;22556;-74
2024/03/04 06:10:00;;;;;;;22.90;15.70;;;;;;;4.64;86.32;100669.86;87554;274;137222;-77
2024/03/04 06:12:02;;;;;;;20.00;15.50;;;;;;;4.58;87.15;100670.41;87401;271;136268;-75
2024/03/04 06:14:04;;;;;;;21.60;16.50;;;;;;;4.62;88.00;100667.77;87477;269;24605;-74
2024/03/04 06:16:06;;;;;;;20.50;15.80;;;;;;;4.80;87.98;100667.86;87340;278;136046;-74
2024/03/04 06:18:08;;;;;;;25.70;16.70;;;;;;;5.09;85.93;100665.54;87394;272;22569;-73
2024/03/04 06:20:10;;;;;;;20.90;15.20;;;;;;;5.34;84.26;100667.24;87254;273;136133;-75
2024/03/04 06:22:15;;;;;;;23.60;15.40;;;;;;;5.58;82.57;100669.00;87542;271;22587;-75
2024/03/04 06:24:18;;;;;;;20.00;16.40;;;;;;;5.77;80.46;100665.43;87389;275;136433;-73
2024/03/04 06:26:20;;;;;;;21.70;15.60;;;;;;;5.88;80.27;100665.42;87488;272;22555;-74
2024/03/04 06:28:22;;;;;;;30.20;17.30;;;;;;;6.03;80.13;100670.67;87378;272;136209;-72
2024/03/04 06:30:24;;;;;;;21.50;16.00;;;;;;;6.25;78.91;100675.20;87533;272;22573;-75
2024/03/04 06:32:26;;;;;;;21.80;16.10;;;;;;;6.39;77.41;100675.45;87384;268;137492;-71
2024/03/04 06:34:30;;;;;;;26.00;17.60;;;;;;;6.32;75.89;100670.29;87599;271;22576;-75
2024/03/04 06:36:32;;;;;;;24.10;16.40;;;;;;;5.95;76.04;100667.39;87775;270;137146;-75
2024/03/04 06:38:34;;;;;;;20.50;16.60;;;;;;;5.47;78.13;100670.25;87815;270;22577;-76
2024/03/04 06:40:36;;;;;;;21.50;15.50;;;;;;;5.11;80.34;100665.83;87465;270;136019;-72
2024/03/04 06:42:38;;;;;;;21.40;16.50;;;;;;;4.88;81.92;100664.27;87643;271;22563;-74
2024/03/04 06:44:40;;;;;;;26.90;17.60;;;;;;;4.68;82.96;100664.95;87394;272;135921;-78
2024/03/04 06:46:43;;;;;;;24.10;17.20;;;;;;;4.56;83.93;100660.80;87794;271;23959;-74
2024/03/04 06:48:46;;;;;;;29.50;18.00;;;;;;;4.50;84.63;100661.15;87572;273;137059;-73
2024/03/04 06:50:48;;;;;;;27.80;17.00;;;;;;;4.33;85.82;100670.91;87737;274;22711;-71
2024/03/04 06:52:49;;;;;;;27.00;17.20;;;;;;;4.16;86.50;100666.02;87659;266;136023;-78
2024/03/04 06:54:51;;;;;;;30.20;19.20;;;;;;;4.02;88.05;100665.08;87814;274;22838;-75
2024/03/04 06:56:53;;;;;;;21.00;16.30;;;;;;;4.06;89.02;100667.20;87512;270;136839;-76
2024/03/04 06:58:54;;;;;;;22.10;15.00;;;;;;;4.17;88.57;100671.48;87516;269;24016;-73
2024/03/04 07:00:56;;;;;;;21.80;15.00;;;;;;;4.23;87.88;100671.50;87548;274;137038;-73
2024/03/04 07:02:59;;;;;;;24.60;15.60;;;;;;;4.18;87.80;100679.35;87754;270;22552;-74
2024/03/04 07:05:00;;;;;;;21.40;15.80;;;;;;;4.08;87.81;100676.21;87400;267;136389;-75
2024/03/04 07:07:02;;;;;;;21.90;13.80;;;;;;;4.00;88.27;100669.34;87538;270;22563;-78
2024/03/04 07:09:04;;;;;;;24.10;15.40;;;;;;;3.91;88.91;100673.64;87758;266;135991;-76
2024/03/04 07:11:08;;;;;;;34.80;18.90;;;;;;;3.79;89.45;100662.82;88042;278;24581;-78
2024/03/04 07:13:10;;;;;;;25.30;16.30;;;;;;;3.68;90.43;100661.99;87798;271;137154;-79
2024/03/04 07:15:12;;;;;;;21.60;16.60;;;;;;;3.65;91.05;100661.48;87497;276;24328;-74
2024/03/04 07:17:14;;;;;;;28.40;19.20;;;;;;;3.70;91.80;100660.78;87384;275;136056;-72
2024/03/04 07:19:15;;;;;;;26.10;17.20;;;;;;;3.73;91.48;100660.17;87585;271;22642;-78
2024/03/04 07:21:20;;;;;;;20.00;15.90;;;;;;;3.76;91.49;100665.52;87481;269;137065;-79
2024/03/04 07:23:21;;;;;;;27.20;16.50;;;;;;;3.81;91.17;100665.96;87922;266;22559;-76
2024/03/04 07:25:23;;;;;;;27.60;16.10;;;;;;;3.82;91.33;100668.46;87619;274;136940;-76
2024/03/04 07:27:25;;;;;;;46.40;20.30;;;;;;;3.89;91.97;100669.67;87564;270;24864;-74
2024/03/04 07:29:27;;;;;;;29.80;17.70;;;;;;;3.96;91.31;100659.38;87505;277;137518;-75
2024/03/04 07:31:41;;;;;;;28.30;18.90;;;;;;;3.99;91.11;100660.48;87944;266;25121;-73
2024/03/04 07:33:43;;;;;;;31.60;19.30;;;;;;;3.98;90.61;100659.48;87787;275;136074;-70
2024/03/04 07:35:45;;;;;;;38.00;21.10;;;;;;;3.93;90.24;100657.14;87547;271;24586;-76
2024/03/04 07:37:47;;;;;;;26.60;20.00;;;;;;;3.91;90.94;100652.38;87601;268;136087;-79
2024/03/04 07:39:49;;;;;;;44.30;20.90;;;;;;;3.97;91.26;100660.10;87916;269;22611;-71
2024/03/04 07:41:51;;;;;;;29.70;20.40;;;;;;;4.06;90.35;100666.36;87560;271;137370;-70
2024/03/04 07:43:53;;;;;;;29.30;19.50;;;;;;;4.06;89.13;100658.21;87615;267;25147;-72
2024/03/04 07:45:55;;;;;;;31.90;19.90;;;;;;;4.04;89.39;100663.65;87458;271;135969;-73
2024/03/04 07:47:56;;;;;;;35.30;20.30;;;;;;;4.05;89.31;100661.00;87539;268;23217;-75
2024/03/04 07:49:58;;;;;;;43.20;22.40;;;;;;;4.08;89.00;100662.10;87686;271;137621;-71
2024/03/04 07:52:00;;;;;;;51.70;23.60;;;;;;;4.17;88.89;100660.09;87969;263;25331;-73
2024/03/04 07:54:04;;;;;;;44.30;19.90;;;;;;;4.27;88.62;100650.74;87635;269;155723;-75
2024/03/04 07:56:08;;;;;;;42.90;21.90;;;;;;;4.28;88.32;100651.65;87132;287;136314;-76
2024/03/04 07:58:10;;;;;;;37.40;22.10;;;;;;;4.28;88.79;100647.45;87753;268;22559;-75
2024/03/04 08:00:13;;;;;;;35.80;21.20;;;;;;;4.31;89.11;100643.91;87575;267;136713;-74
2024/03/04 08:02:15;;;;;;;28.40;21.30;;;;;;;4.32;88.91;100650.63;87650;276;23215;-71
2024/03/04 08:04:17;;;;;;;31.00;18.80;;;;;;;4.31;88.85;100646.38;87669;271;138454;-75
2024/03/04 08:08:45;;;;;;;31.50;18.80;;;;;;;4.09;89.96;100646.52;85340;305;603555;-73
2024/03/04 08:10:47;;;;;;;31.40;19.80;;;;;;;4.20;90.15;100645.36;86636;288;23971;-80
2024/03/04 08:12:49;;;;;;;27.30;17.70;;;;;;;4.36;89.25;100648.50;86475;287;135618;-80
2024/03/04 08:14:51;;;;;;;28.00;18.40;;;;;;;4.29;89.22;100645.07;86435;292;22603;-74
2024/03/04 08:16:53;;;;;;;28.90;20.50;;;;;;;4.33;89.18;100642.79;86697;287;136238;-74
2024/03/04 08:18:54;;;;;;;29.50;19.80;;;;;;;4.36;89.40;100649.27;86771;291;25357;-74
2024/03/04 08:20:56;;;;;;;34.10;21.10;;;;;;;4.37;89.26;100650.88;86562;290;136493;-73
2024/03/04 08:22:58;;;;;;;33.20;20.90;;;;;;;4.42;89.05;100644.92;86182;283;1568917;-80
2024/03/04 08:25:01;;;;;;;48.80;22.90;;;;;;;4.47;88.75;100645.36;87207;270;135862;-77
2024/03/04 08:27:03;;;;;;;39.10;20.90;;;;;;;4.53;88.09;100643.16;87592;278;22582;-73
2024/03/04 08:29:05;;;;;;;35.40;22.50;;;;;;;4.52;88.16;100641.06;87405;274;137145;-75
2024/03/04 08:31:07;;;;;;;36.60;21.60;;;;;;;4.54;88.49;100638.77;87559;272;22580;-72
2024/03/04 08:33:09;;;;;;;34.60;21.20;;;;;;;4.57;88.58;100635.48;87457;282;135648;-76
2024/03/04 08:35:12;;;;;;;35.20;21.60;;;;;;;4.57;88.61;100635.88;87302;271;24997;-73
2024/03/04 08:37:13;;;;;;;25.90;20.10;;;;;;;4.60;88.95;100632.62;87162;271;135671;-73
2024/03/04 08:39:16;;;;;;;26.90;20.50;;;;;;;4.67;88.79;100628.83;87446;275;22703;-73
2024/03/04 08:41:18;;;;;;;32.30;21.90;;;;;;;4.73;88.69;100629.96;87366;269;150377;-76
2024/03/04 08:43:20;;;;;;;28.10;21.00;;;;;;;4.83;89.05;100629.39;87390;273;22561;-74
2024/03/04 08:45:22;;;;;;;28.40;19.40;;;;;;;5.00;88.76;100629.73;87177;275;137298;-77
2024/03/04 08:47:24;;;;;;;32.00;20.30;;;;;;;5.19;87.71;100631.16;87288;275;22562;-77
2024/03/04 08:49:26;;;;;;;24.40;19.40;;;;;;;5.34;85.53;100637.64;87141;270;137793;-71
2024/03/04 08:51:28;;;;;;;23.20;17.70;;;;;;;5.40;84.65;100632.59;87217;275;22561;-75
2024/03/04 08:53:30;;;;;;;25.30;18.50;;;;;;;5.41;83.90;100638.86;87442;267;135631;-74
2024/03/04 08:55:32;;;;;;;24.30;18.00;;;;;;;5.38;83.63;100643.80;87553;263;25284;-75
2024/03/04 08:57:34;;;;;;;20.90;18.20;;;;;;;5.32;83.44;100646.52;87502;271;136747;-80
2024/03/04 08:59:35;;;;;;;23.40;16.80;;;;;;;5.23;84.15;100635.09;87553;278;22810;-77
2024/03/04 09:01:37;;;;;;;22.50;17.30;;;;;;;5.21;84.66;100627.90;87413;274;135740;-73
2024/03/04 09:03:43;;;;;;;27.70;18.80;;;;;;;5.23;84.62;100635.11;87378;272;25118;-71
2024/03/04 09:05:45;;;;;;;24.70;20.00;;;;;;;5.23;84.78;100635.60;87434;269;135693;-75
2024/03/04 09:07:49;;;;;;;24.30;19.40;;;;;;;5.24;84.92;100634.66;87573;270;22743;-74
2024/03/04 09:09:53;;;;;;;23.50;19.00;;;;;;;5.23;84.41;100639.52;87461;277;136393;-76
2024/03/04 09:11:55;;;;;;;25.20;19.70;;;;;;;5.23;85.08;100638.10;87771;267;24011;-75
2024/03/04 09:13:57;;;;;;;29.00;18.50;;;;;;;5.28;85.19;100636.44;87537;267;136809;-72
2024/03/04 09:15:59;;;;;;;24.60;17.40;;;;;;;5.37;84.48;100638.96;87548;276;22564;-72
2024/03/04 09:18:00;;;;;;;23.20;17.80;;;;;;;5.45;83.93;100637.48;87671;278;136780;-73
2024/03/04 09:20:02;;;;;;;25.70;18.30;;;;;;;5.51;83.37;100640.23;87314;272;136194;-74
2024/03/04 09:22:05;;;;;;;22.30;16.80;;;;;;;5.57;83.55;100636.45;87633;275;25242;-71
2024/03/04 09:24:07;;;;;;;20.10;16.90;;;;;;;5.65;83.46;100633.43;87536;272;137045;-70
2024/03/04 09:26:09;;;;;;;20.70;15.40;;;;;;;5.74;82.68;100635.71;87575;271;22563;-75
2024/03/04 09:28:11;;;;;;;21.90;15.10;;;;;;;5.76;81.79;100632.39;87461;269;136115;-74
2024/03/04 09:30:14;;;;;;;22.90;16.50;;;;;;;5.75;81.99;100628.91;87621;278;25342;-74